KLSE/LSE METAR and TAF weather

Enter ICAO airport designator
Station Type Date Time Source
KLSE METAR 2022/01/18 06:53 UTC NOAA

KLSE 180653Z AUTO 15006KT 10SM OVC100 M02/M06 A2986 RMK AO2 SLP127 T10221061


Station Type Date Time Source
KLSE Decoded METAR 2022/01/18 06:53 UTC NOAA

LA CROSSE MUNICIPAL AIRPORT , WI, United States (KLSE) 43-53N 091-15W 200M
Jan 18, 2022 - 01:53 AM EST / 2022.01.18 0653 UTC
Wind: from the SSE (150 degrees) at 7 MPH (6 KT):0
Visibility: 10 mile(s):0
Sky conditions: overcast
Temperature: 28.0 F (-2.2 C)
Windchill: 21 F (-6 C):1
Dew Point: 21.0 F (-6.1 C)
Relative Humidity: 74%
Pressure (altimeter): 29.86 in. Hg (1011 hPa)
ob: KLSE 180653Z AUTO 15006KT 10SM OVC100 M02/M06 A2986 RMK AO2 SLP127 T10221061
cycle: 7

Station Type Date Time Source
KLSE TAF 2022/01/18 06:22 UTC NOAA

TAF KLSE 180520Z 1806/1906 17003KT P6SM SCT025 OVC090
FM181500 18010G20KT P6SM BKN120
FM182000 22009KT P6SM BKN200
FM182300 28011G23KT P6SM BKN018
FM190200 31014G26KT P6SM BKN020

Example: see airport list